sensor_id;sensor_type;location;lat;lon;timestamp;P1;durP1;ratioP1;P2;durP2;ratioP2
45887;SDS011;31595;51.418;7.572;2023-08-06T00:00:25;4.90;;;2.60;;
45887;SDS011;31595;51.418;7.572;2023-08-06T00:02:52;3.45;;;2.85;;
45887;SDS011;31595;51.418;7.572;2023-08-06T00:05:18;5.57;;;4.05;;
45887;SDS011;31595;51.418;7.572;2023-08-06T00:07:46;5.18;;;3.47;;
45887;SDS011;31595;51.418;7.572;2023-08-06T00:10:13;5.03;;;3.53;;
45887;SDS011;31595;51.418;7.572;2023-08-06T00:12:40;4.43;;;3.13;;
45887;SDS011;31595;51.418;7.572;2023-08-06T00:15:09;3.83;;;2.75;;
45887;SDS011;31595;51.418;7.572;2023-08-06T00:17:36;4.80;;;2.85;;
45887;SDS011;31595;51.418;7.572;2023-08-06T00:20:03;6.20;;;3.05;;
45887;SDS011;31595;51.418;7.572;2023-08-06T00:22:31;4.43;;;2.53;;
45887;SDS011;31595;51.418;7.572;2023-08-06T00:24:58;3.30;;;2.90;;
45887;SDS011;31595;51.418;7.572;2023-08-06T00:27:25;5.22;;;2.88;;
45887;SDS011;31595;51.418;7.572;2023-08-06T00:29:52;3.35;;;2.88;;
45887;SDS011;31595;51.418;7.572;2023-08-06T00:32:20;6.93;;;2.67;;
45887;SDS011;31595;51.418;7.572;2023-08-06T00:34:47;3.70;;;2.60;;
45887;SDS011;31595;51.418;7.572;2023-08-06T00:37:15;5.40;;;3.10;;
45887;SDS011;31595;51.418;7.572;2023-08-06T00:39:42;4.85;;;2.53;;
45887;SDS011;31595;51.418;7.572;2023-08-06T00:42:08;4.50;;;2.72;;
45887;SDS011;31595;51.418;7.572;2023-08-06T00:44:35;4.47;;;2.60;;
45887;SDS011;31595;51.418;7.572;2023-08-06T00:47:03;3.65;;;2.53;;
45887;SDS011;31595;51.418;7.572;2023-08-06T00:49:31;6.45;;;2.80;;
45887;SDS011;31595;51.418;7.572;2023-08-06T00:51:58;4.45;;;2.72;;
45887;SDS011;31595;51.418;7.572;2023-08-06T00:54:25;4.32;;;3.20;;
45887;SDS011;31595;51.418;7.572;2023-08-06T00:56:54;7.57;;;2.95;;
45887;SDS011;31595;51.418;7.572;2023-08-06T00:59:21;5.03;;;2.95;;
45887;SDS011;31595;51.418;7.572;2023-08-06T01:01:48;4.22;;;2.72;;
45887;SDS011;31595;51.418;7.572;2023-08-06T01:04:15;3.50;;;2.95;;
45887;SDS011;31595;51.418;7.572;2023-08-06T01:06:45;3.78;;;2.80;;
45887;SDS011;31595;51.418;7.572;2023-08-06T01:09:16;5.05;;;3.17;;
45887;SDS011;31595;51.418;7.572;2023-08-06T01:11:50;4.88;;;2.83;;
45887;SDS011;31595;51.418;7.572;2023-08-06T01:14:22;5.60;;;3.13;;
45887;SDS011;31595;51.418;7.572;2023-08-06T01:16:50;4.53;;;3.35;;
45887;SDS011;31595;51.418;7.572;2023-08-06T01:19:17;4.15;;;2.80;;
45887;SDS011;31595;51.418;7.572;2023-08-06T01:21:46;5.15;;;3.22;;
45887;SDS011;31595;51.418;7.572;2023-08-06T01:24:12;4.15;;;2.95;;
45887;SDS011;31595;51.418;7.572;2023-08-06T01:26:42;5.40;;;3.30;;
45887;SDS011;31595;51.418;7.572;2023-08-06T01:29:11;4.15;;;2.85;;
45887;SDS011;31595;51.418;7.572;2023-08-06T01:31:41;3.80;;;2.63;;
45887;SDS011;31595;51.418;7.572;2023-08-06T01:34:10;3.33;;;3.03;;
45887;SDS011;31595;51.418;7.572;2023-08-06T01:36:40;3.70;;;2.85;;
45887;SDS011;31595;51.418;7.572;2023-08-06T01:39:08;4.30;;;3.30;;
45887;SDS011;31595;51.418;7.572;2023-08-06T01:41:35;4.25;;;3.03;;
45887;SDS011;31595;51.418;7.572;2023-08-06T01:44:02;4.78;;;3.10;;
45887;SDS011;31595;51.418;7.572;2023-08-06T01:46:29;4.47;;;3.13;;
45887;SDS011;31595;51.418;7.572;2023-08-06T01:48:56;6.38;;;3.10;;
45887;SDS011;31595;51.418;7.572;2023-08-06T01:51:22;7.50;;;3.30;;
45887;SDS011;31595;51.418;7.572;2023-08-06T01:53:49;5.28;;;2.90;;
45887;SDS011;31595;51.418;7.572;2023-08-06T01:56:17;4.45;;;2.58;;
45887;SDS011;31595;51.418;7.572;2023-08-06T01:58:44;4.97;;;3.55;;
45887;SDS011;31595;51.418;7.572;2023-08-06T02:01:11;4.40;;;3.50;;
45887;SDS011;31595;51.418;7.572;2023-08-06T02:03:38;5.22;;;3.13;;
45887;SDS011;31595;51.418;7.572;2023-08-06T02:06:04;3.70;;;3.08;;
45887;SDS011;31595;51.418;7.572;2023-08-06T02:08:31;4.38;;;3.05;;
45887;SDS011;31595;51.418;7.572;2023-08-06T02:10:58;5.57;;;3.30;;
45887;SDS011;31595;51.418;7.572;2023-08-06T02:13:26;4.53;;;3.22;;
45887;SDS011;31595;51.418;7.572;2023-08-06T02:15:53;3.60;;;2.90;;
45887;SDS011;31595;51.418;7.572;2023-08-06T02:18:19;7.63;;;3.30;;
45887;SDS011;31595;51.418;7.572;2023-08-06T02:20:54;3.65;;;2.95;;
45887;SDS011;31595;51.418;7.572;2023-08-06T02:23:21;6.65;;;3.03;;
45887;SDS011;31595;51.418;7.572;2023-08-06T02:25:48;3.97;;;3.40;;
45887;SDS011;31595;51.418;7.572;2023-08-06T02:28:14;4.25;;;2.80;;
45887;SDS011;31595;51.418;7.572;2023-08-06T02:30:50;5.65;;;3.15;;
45887;SDS011;31595;51.418;7.572;2023-08-06T02:33:17;4.70;;;3.00;;
45887;SDS011;31595;51.418;7.572;2023-08-06T02:35:44;5.72;;;3.50;;
45887;SDS011;31595;51.418;7.572;2023-08-06T02:38:10;5.35;;;3.50;;
45887;SDS011;31595;51.418;7.572;2023-08-06T02:40:42;3.70;;;3.03;;
45887;SDS011;31595;51.418;7.572;2023-08-06T02:43:09;5.50;;;2.85;;
45887;SDS011;31595;51.418;7.572;2023-08-06T02:45:35;6.68;;;3.53;;
45887;SDS011;31595;51.418;7.572;2023-08-06T02:48:04;4.45;;;3.10;;
45887;SDS011;31595;51.418;7.572;2023-08-06T02:50:35;4.07;;;3.13;;
45887;SDS011;31595;51.418;7.572;2023-08-06T02:53:03;4.05;;;3.00;;
45887;SDS011;31595;51.418;7.572;2023-08-06T02:55:30;3.22;;;2.90;;
45887;SDS011;31595;51.418;7.572;2023-08-06T02:57:57;5.85;;;3.20;;
45887;SDS011;31595;51.418;7.572;2023-08-06T03:00:24;5.25;;;3.60;;
45887;SDS011;31595;51.418;7.572;2023-08-06T03:02:51;4.63;;;3.33;;
45887;SDS011;31595;51.418;7.572;2023-08-06T03:05:19;5.93;;;3.35;;
45887;SDS011;31595;51.418;7.572;2023-08-06T03:07:46;4.32;;;2.88;;
45887;SDS011;31595;51.418;7.572;2023-08-06T03:10:12;4.07;;;3.40;;
45887;SDS011;31595;51.418;7.572;2023-08-06T03:12:42;5.25;;;3.83;;
45887;SDS011;31595;51.418;7.572;2023-08-06T03:15:09;6.35;;;3.50;;
45887;SDS011;31595;51.418;7.572;2023-08-06T03:17:36;4.60;;;3.15;;
45887;SDS011;31595;51.418;7.572;2023-08-06T03:20:03;4.70;;;3.38;;
45887;SDS011;31595;51.418;7.572;2023-08-06T03:22:31;4.13;;;3.53;;
45887;SDS011;31595;51.418;7.572;2023-08-06T03:24:58;6.07;;;3.67;;
45887;SDS011;31595;51.418;7.572;2023-08-06T03:27:25;4.82;;;3.63;;
45887;SDS011;31595;51.418;7.572;2023-08-06T03:29:52;5.50;;;3.33;;
45887;SDS011;31595;51.418;7.572;2023-08-06T03:32:19;4.88;;;3.67;;
45887;SDS011;31595;51.418;7.572;2023-08-06T03:34:45;5.35;;;3.50;;
45887;SDS011;31595;51.418;7.572;2023-08-06T03:37:12;4.90;;;3.00;;
45887;SDS011;31595;51.418;7.572;2023-08-06T03:39:40;5.10;;;3.50;;
45887;SDS011;31595;51.418;7.572;2023-08-06T03:42:07;3.95;;;3.40;;
45887;SDS011;31595;51.418;7.572;2023-08-06T03:44:34;3.58;;;3.08;;
45887;SDS011;31595;51.418;7.572;2023-08-06T03:47:00;5.13;;;3.55;;
45887;SDS011;31595;51.418;7.572;2023-08-06T03:49:27;5.15;;;3.65;;
45887;SDS011;31595;51.418;7.572;2023-08-06T03:51:54;4.75;;;3.20;;
45887;SDS011;31595;51.418;7.572;2023-08-06T03:54:21;4.90;;;3.45;;
45887;SDS011;31595;51.418;7.572;2023-08-06T03:56:49;5.00;;;3.63;;
45887;SDS011;31595;51.418;7.572;2023-08-06T03:59:16;3.50;;;2.90;;
45887;SDS011;31595;51.418;7.572;2023-08-06T04:01:42;5.82;;;3.53;;
45887;SDS011;31595;51.418;7.572;2023-08-06T04:04:09;6.38;;;3.47;;
45887;SDS011;31595;51.418;7.572;2023-08-06T04:06:36;5.45;;;3.80;;
45887;SDS011;31595;51.418;7.572;2023-08-06T04:09:03;5.57;;;3.90;;
45887;SDS011;31595;51.418;7.572;2023-08-06T04:11:29;5.15;;;3.60;;
45887;SDS011;31595;51.418;7.572;2023-08-06T04:13:58;4.57;;;3.10;;
45887;SDS011;31595;51.418;7.572;2023-08-06T04:16:24;6.82;;;3.50;;
45887;SDS011;31595;51.418;7.572;2023-08-06T04:18:52;4.05;;;3.47;;
45887;SDS011;31595;51.418;7.572;2023-08-06T04:21:20;5.13;;;3.45;;
45887;SDS011;31595;51.418;7.572;2023-08-06T04:23:47;4.45;;;3.17;;
45887;SDS011;31595;51.418;7.572;2023-08-06T04:26:14;4.47;;;3.78;;
45887;SDS011;31595;51.418;7.572;2023-08-06T04:28:41;4.45;;;3.42;;
45887;SDS011;31595;51.418;7.572;2023-08-06T04:31:09;6.18;;;3.53;;
45887;SDS011;31595;51.418;7.572;2023-08-06T04:33:36;3.60;;;2.90;;
45887;SDS011;31595;51.418;7.572;2023-08-06T04:36:03;5.60;;;3.45;;
45887;SDS011;31595;51.418;7.572;2023-08-06T04:38:29;5.30;;;3.53;;
45887;SDS011;31595;51.418;7.572;2023-08-06T04:40:56;6.40;;;3.72;;
45887;SDS011;31595;51.418;7.572;2023-08-06T04:43:23;4.43;;;3.70;;
45887;SDS011;31595;51.418;7.572;2023-08-06T04:45:51;5.65;;;4.50;;
45887;SDS011;31595;51.418;7.572;2023-08-06T04:48:20;4.93;;;4.10;;
45887;SDS011;31595;51.418;7.572;2023-08-06T04:50:47;4.65;;;4.00;;
45887;SDS011;31595;51.418;7.572;2023-08-06T04:53:14;5.85;;;3.95;;
45887;SDS011;31595;51.418;7.572;2023-08-06T04:55:41;6.15;;;3.92;;
45887;SDS011;31595;51.418;7.572;2023-08-06T04:58:08;9.05;;;4.15;;
45887;SDS011;31595;51.418;7.572;2023-08-06T05:00:35;7.20;;;4.22;;
45887;SDS011;31595;51.418;7.572;2023-08-06T05:03:02;6.65;;;3.20;;
45887;SDS011;31595;51.418;7.572;2023-08-06T05:05:31;6.18;;;3.80;;
45887;SDS011;31595;51.418;7.572;2023-08-06T05:07:57;4.35;;;3.35;;
45887;SDS011;31595;51.418;7.572;2023-08-06T05:10:24;5.25;;;3.40;;
45887;SDS011;31595;51.418;7.572;2023-08-06T05:12:51;4.97;;;3.97;;
45887;SDS011;31595;51.418;7.572;2023-08-06T05:15:18;6.32;;;3.92;;
45887;SDS011;31595;51.418;7.572;2023-08-06T05:17:45;5.57;;;3.97;;
45887;SDS011;31595;51.418;7.572;2023-08-06T05:20:12;4.18;;;3.75;;
45887;SDS011;31595;51.418;7.572;2023-08-06T05:22:40;5.53;;;3.33;;
45887;SDS011;31595;51.418;7.572;2023-08-06T05:25:07;4.57;;;3.45;;
45887;SDS011;31595;51.418;7.572;2023-08-06T05:27:34;4.47;;;3.00;;
45887;SDS011;31595;51.418;7.572;2023-08-06T05:30:00;5.65;;;3.15;;
45887;SDS011;31595;51.418;7.572;2023-08-06T05:32:27;5.07;;;2.97;;
45887;SDS011;31595;51.418;7.572;2023-08-06T05:34:54;4.75;;;3.25;;
45887;SDS011;31595;51.418;7.572;2023-08-06T05:37:21;5.18;;;3.20;;
45887;SDS011;31595;51.418;7.572;2023-08-06T05:39:51;5.82;;;3.60;;
45887;SDS011;31595;51.418;7.572;2023-08-06T05:42:19;3.47;;;2.78;;
45887;SDS011;31595;51.418;7.572;2023-08-06T05:44:46;4.80;;;3.42;;
45887;SDS011;31595;51.418;7.572;2023-08-06T05:47:13;5.50;;;3.10;;
45887;SDS011;31595;51.418;7.572;2023-08-06T05:49:39;3.92;;;3.10;;
45887;SDS011;31595;51.418;7.572;2023-08-06T05:52:06;3.50;;;2.75;;
45887;SDS011;31595;51.418;7.572;2023-08-06T05:54:33;4.65;;;2.67;;
45887;SDS011;31595;51.418;7.572;2023-08-06T05:57:02;3.85;;;2.65;;
45887;SDS011;31595;51.418;7.572;2023-08-06T05:59:29;3.35;;;2.83;;
45887;SDS011;31595;51.418;7.572;2023-08-06T06:01:57;5.35;;;3.22;;
45887;SDS011;31595;51.418;7.572;2023-08-06T06:04:24;2.80;;;2.42;;
45887;SDS011;31595;51.418;7.572;2023-08-06T06:06:51;4.05;;;2.40;;
45887;SDS011;31595;51.418;7.572;2023-08-06T06:09:18;3.65;;;2.17;;
45887;SDS011;31595;51.418;7.572;2023-08-06T06:11:45;4.72;;;2.78;;
45887;SDS011;31595;51.418;7.572;2023-08-06T06:14:14;4.00;;;2.33;;
45887;SDS011;31595;51.418;7.572;2023-08-06T06:16:41;3.65;;;2.60;;
45887;SDS011;31595;51.418;7.572;2023-08-06T06:19:08;4.30;;;2.50;;
45887;SDS011;31595;51.418;7.572;2023-08-06T06:21:34;7.25;;;2.60;;
45887;SDS011;31595;51.418;7.572;2023-08-06T06:24:01;3.08;;;2.00;;
45887;SDS011;31595;51.418;7.572;2023-08-06T06:26:28;4.28;;;1.80;;
45887;SDS011;31595;51.418;7.572;2023-08-06T06:28:55;2.85;;;1.88;;
45887;SDS011;31595;51.418;7.572;2023-08-06T06:31:23;3.65;;;2.20;;
45887;SDS011;31595;51.418;7.572;2023-08-06T06:33:49;4.20;;;2.17;;
45887;SDS011;31595;51.418;7.572;2023-08-06T06:36:18;4.97;;;1.90;;
45887;SDS011;31595;51.418;7.572;2023-08-06T06:38:45;2.58;;;1.67;;
45887;SDS011;31595;51.418;7.572;2023-08-06T06:41:13;3.70;;;1.80;;
45887;SDS011;31595;51.418;7.572;2023-08-06T06:43:40;2.97;;;1.83;;
45887;SDS011;31595;51.418;7.572;2023-08-06T06:46:07;4.22;;;1.95;;
45887;SDS011;31595;51.418;7.572;2023-08-06T06:48:35;3.63;;;1.80;;
45887;SDS011;31595;51.418;7.572;2023-08-06T06:51:02;3.47;;;1.80;;
45887;SDS011;31595;51.418;7.572;2023-08-06T06:53:29;4.20;;;1.67;;
45887;SDS011;31595;51.418;7.572;2023-08-06T06:55:56;2.60;;;1.60;;
45887;SDS011;31595;51.418;7.572;2023-08-06T06:58:23;3.70;;;1.52;;
45887;SDS011;31595;51.418;7.572;2023-08-06T07:00:50;4.53;;;1.70;;
45887;SDS011;31595;51.418;7.572;2023-08-06T07:03:17;2.15;;;1.48;;
45887;SDS011;31595;51.418;7.572;2023-08-06T07:05:45;2.70;;;1.60;;
45887;SDS011;31595;51.418;7.572;2023-08-06T07:08:12;2.40;;;1.40;;
45887;SDS011;31595;51.418;7.572;2023-08-06T07:10:40;3.03;;;1.40;;
45887;SDS011;31595;51.418;7.572;2023-08-06T07:13:07;3.55;;;1.83;;
45887;SDS011;31595;51.418;7.572;2023-08-06T07:15:34;2.50;;;1.70;;
45887;SDS011;31595;51.418;7.572;2023-08-06T07:18:01;3.65;;;1.50;;
45887;SDS011;31595;51.418;7.572;2023-08-06T07:20:28;2.38;;;1.60;;
45887;SDS011;31595;51.418;7.572;2023-08-06T07:22:58;2.33;;;1.40;;
45887;SDS011;31595;51.418;7.572;2023-08-06T07:25:25;2.83;;;1.30;;
45887;SDS011;31595;51.418;7.572;2023-08-06T07:27:52;3.55;;;1.70;;
45887;SDS011;31595;51.418;7.572;2023-08-06T07:30:19;3.38;;;1.50;;
45887;SDS011;31595;51.418;7.572;2023-08-06T07:32:45;2.20;;;1.40;;
45887;SDS011;31595;51.418;7.572;2023-08-06T07:35:14;2.85;;;1.50;;
45887;SDS011;31595;51.418;7.572;2023-08-06T07:37:41;2.95;;;1.80;;
45887;SDS011;31595;51.418;7.572;2023-08-06T07:40:10;3.65;;;1.60;;
45887;SDS011;31595;51.418;7.572;2023-08-06T07:42:37;4.70;;;1.70;;
45887;SDS011;31595;51.418;7.572;2023-08-06T07:45:04;3.15;;;1.30;;
45887;SDS011;31595;51.418;7.572;2023-08-06T07:47:33;4.45;;;1.60;;
45887;SDS011;31595;51.418;7.572;2023-08-06T07:49:59;2.93;;;1.53;;
45887;SDS011;31595;51.418;7.572;2023-08-06T07:52:28;2.60;;;1.48;;
45887;SDS011;31595;51.418;7.572;2023-08-06T07:54:55;4.35;;;1.58;;
45887;SDS011;31595;51.418;7.572;2023-08-06T07:57:23;3.05;;;1.67;;
45887;SDS011;31595;51.418;7.572;2023-08-06T07:59:53;3.47;;;1.48;;
45887;SDS011;31595;51.418;7.572;2023-08-06T08:02:19;2.40;;;1.38;;
45887;SDS011;31595;51.418;7.572;2023-08-06T08:04:46;2.83;;;1.45;;
45887;SDS011;31595;51.418;7.572;2023-08-06T08:07:14;5.53;;;1.42;;
45887;SDS011;31595;51.418;7.572;2023-08-06T08:09:43;2.60;;;1.48;;
45887;SDS011;31595;51.418;7.572;2023-08-06T08:12:10;11.65;;;2.22;;
45887;SDS011;31595;51.418;7.572;2023-08-06T08:14:39;3.05;;;1.25;;
45887;SDS011;31595;51.418;7.572;2023-08-06T08:17:06;2.53;;;1.40;;
45887;SDS011;31595;51.418;7.572;2023-08-06T08:19:36;2.90;;;1.25;;
45887;SDS011;31595;51.418;7.572;2023-08-06T08:22:03;2.70;;;1.38;;
45887;SDS011;31595;51.418;7.572;2023-08-06T08:24:32;2.20;;;1.25;;
45887;SDS011;31595;51.418;7.572;2023-08-06T08:26:59;2.30;;;1.30;;
45887;SDS011;31595;51.418;7.572;2023-08-06T08:29:29;2.25;;;1.45;;
45887;SDS011;31595;51.418;7.572;2023-08-06T08:31:57;4.28;;;1.70;;
45887;SDS011;31595;51.418;7.572;2023-08-06T08:34:24;4.10;;;1.50;;
45887;SDS011;31595;51.418;7.572;2023-08-06T08:36:51;2.22;;;1.25;;
45887;SDS011;31595;51.418;7.572;2023-08-06T08:39:20;3.83;;;1.40;;
45887;SDS011;31595;51.418;7.572;2023-08-06T08:41:47;4.13;;;1.67;;
45887;SDS011;31595;51.418;7.572;2023-08-06T08:44:14;3.10;;;1.80;;
45887;SDS011;31595;51.418;7.572;2023-08-06T08:46:43;3.45;;;2.80;;
45887;SDS011;31595;51.418;7.572;2023-08-06T08:49:12;4.35;;;2.38;;
45887;SDS011;31595;51.418;7.572;2023-08-06T08:51:38;4.18;;;2.25;;
45887;SDS011;31595;51.418;7.572;2023-08-06T08:54:05;3.65;;;2.40;;
45887;SDS011;31595;51.418;7.572;2023-08-06T08:56:33;3.08;;;2.28;;
45887;SDS011;31595;51.418;7.572;2023-08-06T08:59:00;3.90;;;2.30;;
45887;SDS011;31595;51.418;7.572;2023-08-06T09:01:27;5.03;;;2.38;;
45887;SDS011;31595;51.418;7.572;2023-08-06T09:03:55;5.18;;;2.33;;
45887;SDS011;31595;51.418;7.572;2023-08-06T09:06:24;32.40;;;2.92;;
45887;SDS011;31595;51.418;7.572;2023-08-06T09:08:54;51.95;;;6.43;;
45887;SDS011;31595;51.418;7.572;2023-08-06T09:11:22;29.95;;;6.88;;
45887;SDS011;31595;51.418;7.572;2023-08-06T09:13:50;6.25;;;3.67;;
45887;SDS011;31595;51.418;7.572;2023-08-06T09:16:16;7.70;;;4.90;;
45887;SDS011;31595;51.418;7.572;2023-08-06T09:18:43;7.28;;;5.57;;
45887;SDS011;31595;51.418;7.572;2023-08-06T09:21:13;9.43;;;7.07;;
45887;SDS011;31595;51.418;7.572;2023-08-06T09:23:41;13.23;;;8.20;;
45887;SDS011;31595;51.418;7.572;2023-08-06T09:26:10;9.40;;;6.55;;
45887;SDS011;31595;51.418;7.572;2023-08-06T09:28:37;8.65;;;5.22;;
45887;SDS011;31595;51.418;7.572;2023-08-06T09:31:05;12.05;;;8.23;;
45887;SDS011;31595;51.418;7.572;2023-08-06T09:33:32;11.60;;;7.72;;
45887;SDS011;31595;51.418;7.572;2023-08-06T09:36:02;14.45;;;9.13;;
45887;SDS011;31595;51.418;7.572;2023-08-06T09:38:37;8.85;;;6.68;;
45887;SDS011;31595;51.418;7.572;2023-08-06T09:41:05;9.85;;;7.55;;
45887;SDS011;31595;51.418;7.572;2023-08-06T09:43:39;10.52;;;8.13;;
45887;SDS011;31595;51.418;7.572;2023-08-06T09:46:10;11.73;;;8.13;;
45887;SDS011;31595;51.418;7.572;2023-08-06T09:48:37;9.60;;;6.25;;
45887;SDS011;31595;51.418;7.572;2023-08-06T09:51:04;9.55;;;6.13;;
45887;SDS011;31595;51.418;7.572;2023-08-06T09:53:31;9.23;;;7.60;;
45887;SDS011;31595;51.418;7.572;2023-08-06T09:55:59;7.57;;;6.20;;
45887;SDS011;31595;51.418;7.572;2023-08-06T09:58:29;11.70;;;7.40;;
45887;SDS011;31595;51.418;7.572;2023-08-06T10:03:23;8.52;;;5.25;;
45887;SDS011;31595;51.418;7.572;2023-08-06T10:05:50;7.68;;;6.50;;
45887;SDS011;31595;51.418;7.572;2023-08-06T10:08:17;8.40;;;7.05;;
45887;SDS011;31595;51.418;7.572;2023-08-06T10:10:44;8.32;;;6.50;;
45887;SDS011;31595;51.418;7.572;2023-08-06T10:13:11;7.85;;;6.03;;
45887;SDS011;31595;51.418;7.572;2023-08-06T10:15:40;9.23;;;6.00;;
45887;SDS011;31595;51.418;7.572;2023-08-06T10:18:07;6.13;;;5.53;;
45887;SDS011;31595;51.418;7.572;2023-08-06T10:20:34;6.20;;;5.40;;
45887;SDS011;31595;51.418;7.572;2023-08-06T10:23:01;6.60;;;6.00;;
45887;SDS011;31595;51.418;7.572;2023-08-06T10:25:30;6.40;;;5.25;;
45887;SDS011;31595;51.418;7.572;2023-08-06T10:27:57;5.63;;;4.47;;
45887;SDS011;31595;51.418;7.572;2023-08-06T10:30:24;7.18;;;5.72;;
45887;SDS011;31595;51.418;7.572;2023-08-06T10:32:53;6.32;;;4.80;;
45887;SDS011;31595;51.418;7.572;2023-08-06T10:35:33;5.97;;;5.35;;
45887;SDS011;31595;51.418;7.572;2023-08-06T10:38:04;8.77;;;5.78;;
45887;SDS011;31595;51.418;7.572;2023-08-06T10:40:31;5.35;;;4.40;;
45887;SDS011;31595;51.418;7.572;2023-08-06T10:42:59;4.68;;;3.90;;
45887;SDS011;31595;51.418;7.572;2023-08-06T10:45:26;6.18;;;5.30;;
45887;SDS011;31595;51.418;7.572;2023-08-06T10:47:55;8.13;;;7.30;;
45887;SDS011;31595;51.418;7.572;2023-08-06T10:50:23;7.60;;;6.10;;
45887;SDS011;31595;51.418;7.572;2023-08-06T10:52:50;7.85;;;7.05;;
45887;SDS011;31595;51.418;7.572;2023-08-06T10:55:23;6.50;;;5.90;;
45887;SDS011;31595;51.418;7.572;2023-08-06T10:57:50;9.45;;;8.18;;
45887;SDS011;31595;51.418;7.572;2023-08-06T11:00:17;7.63;;;6.93;;
45887;SDS011;31595;51.418;7.572;2023-08-06T11:02:44;3.50;;;2.80;;
45887;SDS011;31595;51.418;7.572;2023-08-06T11:05:14;3.40;;;3.10;;
45887;SDS011;31595;51.418;7.572;2023-08-06T11:07:41;5.13;;;4.32;;
45887;SDS011;31595;51.418;7.572;2023-08-06T11:10:08;5.10;;;3.95;;
45887;SDS011;31595;51.418;7.572;2023-08-06T11:12:36;4.07;;;3.20;;
45887;SDS011;31595;51.418;7.572;2023-08-06T11:15:03;5.57;;;4.40;;
45887;SDS011;31595;51.418;7.572;2023-08-06T11:17:30;5.25;;;4.75;;
45887;SDS011;31595;51.418;7.572;2023-08-06T11:19:58;3.13;;;2.28;;
45887;SDS011;31595;51.418;7.572;2023-08-06T11:22:27;2.30;;;1.80;;
45887;SDS011;31595;51.418;7.572;2023-08-06T11:24:54;2.42;;;2.00;;
45887;SDS011;31595;51.418;7.572;2023-08-06T11:27:21;3.95;;;2.72;;
45887;SDS011;31595;51.418;7.572;2023-08-06T11:29:48;4.22;;;3.33;;
45887;SDS011;31595;51.418;7.572;2023-08-06T11:32:14;3.90;;;3.40;;
45887;SDS011;31595;51.418;7.572;2023-08-06T11:34:41;4.20;;;3.45;;
45887;SDS011;31595;51.418;7.572;2023-08-06T11:37:09;5.88;;;4.00;;
45887;SDS011;31595;51.418;7.572;2023-08-06T11:39:38;4.22;;;3.20;;
45887;SDS011;31595;51.418;7.572;2023-08-06T11:42:05;3.53;;;2.70;;
45887;SDS011;31595;51.418;7.572;2023-08-06T11:44:33;4.80;;;2.80;;
45887;SDS011;31595;51.418;7.572;2023-08-06T11:47:01;3.60;;;2.50;;
45887;SDS011;31595;51.418;7.572;2023-08-06T11:49:38;4.20;;;3.28;;
45887;SDS011;31595;51.418;7.572;2023-08-06T11:52:10;3.63;;;2.85;;
45887;SDS011;31595;51.418;7.572;2023-08-06T11:54:38;7.40;;;2.53;;
45887;SDS011;31595;51.418;7.572;2023-08-06T11:57:05;2.53;;;2.13;;
45887;SDS011;31595;51.418;7.572;2023-08-06T11:59:32;3.10;;;2.22;;
45887;SDS011;31595;51.418;7.572;2023-08-06T12:02:00;4.05;;;2.20;;
45887;SDS011;31595;51.418;7.572;2023-08-06T12:04:26;4.22;;;2.55;;
45887;SDS011;31595;51.418;7.572;2023-08-06T12:06:53;3.42;;;2.20;;
45887;SDS011;31595;51.418;7.572;2023-08-06T12:09:20;3.72;;;2.50;;
45887;SDS011;31595;51.418;7.572;2023-08-06T12:11:48;3.72;;;2.20;;
45887;SDS011;31595;51.418;7.572;2023-08-06T12:14:15;4.22;;;2.60;;
45887;SDS011;31595;51.418;7.572;2023-08-06T12:16:42;8.38;;;3.60;;
45887;SDS011;31595;51.418;7.572;2023-08-06T12:19:09;4.43;;;3.10;;
45887;SDS011;31595;51.418;7.572;2023-08-06T12:21:35;4.32;;;3.25;;
45887;SDS011;31595;51.418;7.572;2023-08-06T12:24:02;4.70;;;3.47;;
45887;SDS011;31595;51.418;7.572;2023-08-06T12:26:29;4.22;;;3.78;;
45887;SDS011;31595;51.418;7.572;2023-08-06T12:28:57;4.90;;;3.25;;
45887;SDS011;31595;51.418;7.572;2023-08-06T12:31:24;4.82;;;3.75;;
45887;SDS011;31595;51.418;7.572;2023-08-06T12:33:51;4.22;;;3.83;;
45887;SDS011;31595;51.418;7.572;2023-08-06T12:36:17;5.95;;;4.95;;
45887;SDS011;31595;51.418;7.572;2023-08-06T12:38:45;5.70;;;5.05;;
45887;SDS011;31595;51.418;7.572;2023-08-06T12:41:12;4.53;;;4.13;;
45887;SDS011;31595;51.418;7.572;2023-08-06T12:43:39;4.95;;;3.67;;
45887;SDS011;31595;51.418;7.572;2023-08-06T12:46:07;4.40;;;3.55;;
45887;SDS011;31595;51.418;7.572;2023-08-06T12:48:34;3.90;;;3.58;;
45887;SDS011;31595;51.418;7.572;2023-08-06T12:51:01;3.80;;;3.40;;
45887;SDS011;31595;51.418;7.572;2023-08-06T12:53:27;5.70;;;5.20;;
45887;SDS011;31595;51.418;7.572;2023-08-06T12:55:54;7.68;;;6.88;;
45887;SDS011;31595;51.418;7.572;2023-08-06T12:58:21;8.93;;;8.10;;
45887;SDS011;31595;51.418;7.572;2023-08-06T13:00:48;8.23;;;7.43;;
45887;SDS011;31595;51.418;7.572;2023-08-06T13:03:16;7.80;;;6.97;;
45887;SDS011;31595;51.418;7.572;2023-08-06T13:05:43;6.13;;;5.63;;
45887;SDS011;31595;51.418;7.572;2023-08-06T13:08:10;7.47;;;6.75;;
45887;SDS011;31595;51.418;7.572;2023-08-06T13:10:37;6.78;;;5.00;;
45887;SDS011;31595;51.418;7.572;2023-08-06T13:13:04;5.80;;;4.80;;
45887;SDS011;31595;51.418;7.572;2023-08-06T13:15:30;5.15;;;4.50;;
45887;SDS011;31595;51.418;7.572;2023-08-06T13:17:57;3.35;;;3.05;;
45887;SDS011;31595;51.418;7.572;2023-08-06T13:20:25;3.15;;;2.20;;
45887;SDS011;31595;51.418;7.572;2023-08-06T13:22:52;2.75;;;2.08;;
45887;SDS011;31595;51.418;7.572;2023-08-06T13:25:19;4.45;;;1.90;;
45887;SDS011;31595;51.418;7.572;2023-08-06T13:27:46;2.85;;;1.63;;
45887;SDS011;31595;51.418;7.572;2023-08-06T13:30:13;2.60;;;1.48;;
45887;SDS011;31595;51.418;7.572;2023-08-06T13:32:39;2.40;;;1.00;;
45887;SDS011;31595;51.418;7.572;2023-08-06T13:35:06;3.33;;;0.80;;
45887;SDS011;31595;51.418;7.572;2023-08-06T13:37:34;1.63;;;0.80;;
45887;SDS011;31595;51.418;7.572;2023-08-06T13:40:01;1.10;;;0.70;;
45887;SDS011;31595;51.418;7.572;2023-08-06T13:42:28;1.75;;;0.80;;
45887;SDS011;31595;51.418;7.572;2023-08-06T13:44:57;1.70;;;0.95;;
45887;SDS011;31595;51.418;7.572;2023-08-06T13:47:28;2.55;;;0.82;;
45887;SDS011;31595;51.418;7.572;2023-08-06T13:49:55;1.73;;;0.52;;
45887;SDS011;31595;51.418;7.572;2023-08-06T13:52:21;2.28;;;0.80;;
45887;SDS011;31595;51.418;7.572;2023-08-06T13:54:50;1.15;;;0.60;;
45887;SDS011;31595;51.418;7.572;2023-08-06T13:57:16;1.42;;;0.70;;
45887;SDS011;31595;51.418;7.572;2023-08-06T13:59:43;1.40;;;0.68;;
45887;SDS011;31595;51.418;7.572;2023-08-06T14:02:10;1.17;;;0.55;;
45887;SDS011;31595;51.418;7.572;2023-08-06T14:04:37;1.20;;;0.60;;
45887;SDS011;31595;51.418;7.572;2023-08-06T14:07:05;1.30;;;0.80;;
45887;SDS011;31595;51.418;7.572;2023-08-06T14:09:32;1.15;;;0.60;;
45887;SDS011;31595;51.418;7.572;2023-08-06T14:12:01;1.10;;;0.60;;
45887;SDS011;31595;51.418;7.572;2023-08-06T14:14:28;1.02;;;0.52;;
45887;SDS011;31595;51.418;7.572;2023-08-06T14:16:55;1.25;;;0.50;;
45887;SDS011;31595;51.418;7.572;2023-08-06T14:19:22;1.30;;;0.80;;
45887;SDS011;31595;51.418;7.572;2023-08-06T14:21:49;1.10;;;0.68;;
45887;SDS011;31595;51.418;7.572;2023-08-06T14:24:16;1.17;;;0.70;;
45887;SDS011;31595;51.418;7.572;2023-08-06T14:26:42;1.05;;;0.70;;
45887;SDS011;31595;51.418;7.572;2023-08-06T14:29:10;2.28;;;0.70;;
45887;SDS011;31595;51.418;7.572;2023-08-06T14:31:39;1.40;;;0.80;;
45887;SDS011;31595;51.418;7.572;2023-08-06T14:34:05;1.83;;;0.90;;
45887;SDS011;31595;51.418;7.572;2023-08-06T14:36:32;1.70;;;0.90;;
45887;SDS011;31595;51.418;7.572;2023-08-06T14:38:59;2.33;;;1.00;;
45887;SDS011;31595;51.418;7.572;2023-08-06T14:41:26;1.50;;;1.00;;
45887;SDS011;31595;51.418;7.572;2023-08-06T14:43:53;1.75;;;1.25;;
45887;SDS011;31595;51.418;7.572;2023-08-06T14:46:21;2.25;;;1.00;;
45887;SDS011;31595;51.418;7.572;2023-08-06T14:48:48;2.20;;;1.23;;
45887;SDS011;31595;51.418;7.572;2023-08-06T14:51:15;1.90;;;1.20;;